createdAt,value
2022-12-19T00:00:50.375Z,100.80
2022-12-19T00:03:28.459Z,117.20
2022-12-19T00:06:00.924Z,58.90
2022-12-19T00:08:29.964Z,78.60
2022-12-19T00:11:02.146Z,66.60
2022-12-19T00:13:33.622Z,93.20
2022-12-19T00:16:20.083Z,89.80
2022-12-19T00:18:50.994Z,68.50
2022-12-19T00:21:28.800Z,72.80
2022-12-19T00:23:58.026Z,81.40
2022-12-19T00:26:37.261Z,173.30
2022-12-19T00:29:14.131Z,111.30
2022-12-19T00:31:43.678Z,116.30
2022-12-19T00:34:12.229Z,108.40
2022-12-19T00:36:42.149Z,88.70
2022-12-19T00:39:11.955Z,136.50
2022-12-19T00:41:42.107Z,111.90
2022-12-19T00:44:14.578Z,106.80
2022-12-19T00:46:46.189Z,79.20
2022-12-19T00:49:21.866Z,90.30
2022-12-19T00:51:50.651Z,60.20
2022-12-19T00:54:19.383Z,68.80
2022-12-19T00:56:48.535Z,51.20
2022-12-19T00:59:18.128Z,62.00
2022-12-19T01:01:55.310Z,64.70
2022-12-19T01:04:28.851Z,60.70
2022-12-19T01:07:02.706Z,47.00
2022-12-19T01:09:36.848Z,48.20
2022-12-19T01:12:25.820Z,52.00
2022-12-19T01:15:03.771Z,57.40
2022-12-19T01:17:37.752Z,56.00
2022-12-19T01:20:29.093Z,55.10
2022-12-19T01:23:00.100Z,46.00
2022-12-19T01:25:29.802Z,71.80
2022-12-19T01:27:58.589Z,55.00
2022-12-19T01:30:29.202Z,70.60
2022-12-19T01:33:00.948Z,39.20
2022-12-19T01:35:29.772Z,69.40
2022-12-19T01:38:07.965Z,66.80
2022-12-19T01:40:37.994Z,59.60
2022-12-19T01:43:12.849Z,58.60
2022-12-19T01:45:45.834Z,64.40
2022-12-19T01:48:22.065Z,53.90
2022-12-19T01:51:10.634Z,49.40
2022-12-19T01:53:51.404Z,49.60
2022-12-19T01:56:28.965Z,54.10
2022-12-19T01:59:06.378Z,58.70
2022-12-19T02:01:51.534Z,54.50
2022-12-19T02:04:28.974Z,46.60
2022-12-19T02:07:16.114Z,50.90
2022-12-19T02:09:51.932Z,48.50
2022-12-19T02:12:33.079Z,51.60
2022-12-19T02:15:03.636Z,52.50
2022-12-19T02:18:11.015Z,56.90
2022-12-19T02:21:04.782Z,62.90
2022-12-19T02:23:55.906Z,55.70
2022-12-19T02:26:48.658Z,53.50
2022-12-19T02:29:56.868Z,61.10
2022-12-19T02:32:41.675Z,54.50
2022-12-19T02:35:18.621Z,50.20
2022-12-19T02:37:58.363Z,49.90
2022-12-19T02:40:39.855Z,61.70
2022-12-19T02:43:10.922Z,52.80
2022-12-19T02:45:41.267Z,56.10
2022-12-19T02:48:12.292Z,57.90
2022-12-19T02:50:50.310Z,47.50
2022-12-19T02:53:23.547Z,63.80
2022-12-19T02:56:20.416Z,57.60
2022-12-19T02:59:12.151Z,54.90
2022-12-19T03:01:50.335Z,45.20
2022-12-19T03:05:19.065Z,60.40
2022-12-19T03:08:09.377Z,75.30
2022-12-19T03:10:53.711Z,80.90
2022-12-19T03:13:38.259Z,35.50
2022-12-19T03:16:11.299Z,61.40
2022-12-19T03:18:41.192Z,67.50
2022-12-19T03:21:42.211Z,58.90
2022-12-19T03:24:13.350Z,66.00
2022-12-19T03:27:03.569Z,60.70
2022-12-19T03:30:01.740Z,56.50
2022-12-19T03:32:32.653Z,59.80
2022-12-19T03:35:09.021Z,35.80
2022-12-19T03:37:42.287Z,48.90
2022-12-19T03:40:19.546Z,52.60
2022-12-19T03:43:08.896Z,46.70
2022-12-19T03:45:40.906Z,52.70
2022-12-19T03:48:49.220Z,58.00
2022-12-19T03:51:57.889Z,55.20
2022-12-19T03:54:33.393Z,39.90
2022-12-19T03:57:10.640Z,48.20
2022-12-19T03:59:39.222Z,34.70
2022-12-19T04:02:09.109Z,47.20
2022-12-19T04:04:44.024Z,46.90
2022-12-19T04:07:15.155Z,44.80
2022-12-19T04:09:46.573Z,49.90
2022-12-19T04:12:21.450Z,49.40
2022-12-19T04:14:50.901Z,49.50
2022-12-19T04:17:47.340Z,44.20
2022-12-19T04:20:25.572Z,45.00
2022-12-19T04:23:23.961Z,34.60
2022-12-19T04:26:00.207Z,42.70
2022-12-19T04:28:59.239Z,43.40
2022-12-19T04:31:27.903Z,34.80
2022-12-19T04:33:56.568Z,42.00
2022-12-19T04:36:26.854Z,45.70
2022-12-19T04:38:55.556Z,48.60
2022-12-19T04:41:24.164Z,43.60
2022-12-19T04:43:52.867Z,42.50
2022-12-19T04:46:21.660Z,44.80
2022-12-19T04:48:50.429Z,51.60
2022-12-19T04:51:19.530Z,65.40
2022-12-19T04:53:48.218Z,59.70
2022-12-19T04:56:17.141Z,48.10
2022-12-19T04:58:46.099Z,49.60
2022-12-19T05:01:14.948Z,55.70
2022-12-19T05:03:43.628Z,45.00
2022-12-19T05:06:15.329Z,50.20
2022-12-19T05:08:44.639Z,40.80
2022-12-19T05:11:19.762Z,43.00
2022-12-19T05:13:50.322Z,42.90
2022-12-19T05:16:19.248Z,45.90
2022-12-19T05:18:47.777Z,43.60
2022-12-19T05:21:16.566Z,55.00
2022-12-19T05:23:45.148Z,35.20
2022-12-19T05:26:14.051Z,46.20
2022-12-19T05:28:42.629Z,39.60
2022-12-19T05:31:11.275Z,46.90
2022-12-19T05:33:41.781Z,31.30
2022-12-19T05:36:12.559Z,42.40
2022-12-19T05:38:41.669Z,38.60
2022-12-19T05:41:14.525Z,51.80
2022-12-19T05:43:45.295Z,48.90
2022-12-19T05:46:13.933Z,47.90
2022-12-19T05:48:42.984Z,50.00
2022-12-19T05:51:12.476Z,152.30
2022-12-19T05:53:42.215Z,295.40
2022-12-19T05:56:17.753Z,165.20
2022-12-19T05:58:47.362Z,86.30
2022-12-19T06:01:23.920Z,101.90
2022-12-19T06:03:54.112Z,164.00
2022-12-19T06:06:26.632Z,106.00
2022-12-19T06:08:57.423Z,97.60
2022-12-19T06:11:27.473Z,86.80
2022-12-19T06:13:55.949Z,98.50
2022-12-19T06:16:24.989Z,68.90
2022-12-19T06:18:55.061Z,69.00
2022-12-19T06:21:24.135Z,60.20
2022-12-19T06:23:52.751Z,48.80
2022-12-19T06:26:22.822Z,114.50
2022-12-19T06:28:53.590Z,69.50
2022-12-19T06:31:25.175Z,90.80
2022-12-19T06:33:55.886Z,92.60
2022-12-19T06:36:31.689Z,71.80
2022-12-19T06:39:00.326Z,71.20
2022-12-19T06:41:47.851Z,64.60
2022-12-19T06:44:17.975Z,121.10
2022-12-19T06:46:46.467Z,169.30
2022-12-19T06:49:15.044Z,75.60
2022-12-19T06:51:43.929Z,119.60
2022-12-19T06:54:13.911Z,129.50
2022-12-19T06:56:44.277Z,242.00
2022-12-19T06:59:15.582Z,192.10
2022-12-19T07:02:08.990Z,137.90
2022-12-19T07:04:43.785Z,79.50
2022-12-19T07:07:12.401Z,160.50
2022-12-19T07:09:41.717Z,86.80
2022-12-19T07:12:10.596Z,96.80
2022-12-19T07:14:39.179Z,59.20
2022-12-19T07:17:07.967Z,47.90
2022-12-19T07:19:36.577Z,78.30
2022-12-19T07:22:06.277Z,61.00
2022-12-19T07:24:36.385Z,87.00
2022-12-19T07:27:09.493Z,93.80
2022-12-19T07:29:38.063Z,86.80
2022-12-19T07:32:06.794Z,88.70
2022-12-19T07:34:35.538Z,87.90
2022-12-19T07:37:04.120Z,134.90
2022-12-19T07:39:32.906Z,76.80
2022-12-19T07:42:01.397Z,57.30
2022-12-19T07:44:35.605Z,72.30
2022-12-19T07:47:04.396Z,68.10
2022-12-19T07:49:32.991Z,68.80
2022-12-19T07:52:02.078Z,55.70
2022-12-19T07:54:30.675Z,45.70
2022-12-19T07:56:59.247Z,54.10
2022-12-19T07:59:32.205Z,62.70
2022-12-19T08:02:04.719Z,56.30
2022-12-19T08:04:33.598Z,46.40
2022-12-19T08:07:02.699Z,69.80
2022-12-19T08:09:32.649Z,58.50
2022-12-19T08:12:01.301Z,53.10
2022-12-19T08:14:29.983Z,48.70
2022-12-19T08:19:47.135Z,47.70
2022-12-19T08:22:16.626Z,45.60
2022-12-19T08:24:45.733Z,40.70
2022-12-19T08:27:17.560Z,33.60
2022-12-19T08:29:46.166Z,46.70
2022-12-19T08:32:20.883Z,54.40
2022-12-19T08:34:51.022Z,45.70
2022-12-19T08:37:19.510Z,44.80
2022-12-19T08:39:48.858Z,32.30
2022-12-19T08:42:17.806Z,39.40
2022-12-19T08:44:46.381Z,42.00
2022-12-19T08:47:15.367Z,54.70
2022-12-19T08:49:43.852Z,42.60
2022-12-19T08:52:12.441Z,42.90
2022-12-19T08:54:41.044Z,47.30
2022-12-19T08:57:09.712Z,47.70
2022-12-19T08:59:38.716Z,46.20
2022-12-19T09:02:09.830Z,51.10
2022-12-19T09:05:57.825Z,42.90
2022-12-19T09:07:27.191Z,50.30
2022-12-19T09:09:55.879Z,41.30
2022-12-19T09:12:24.474Z,39.50
2022-12-19T09:14:53.153Z,46.10
2022-12-19T09:17:21.844Z,41.20
2022-12-19T09:19:51.041Z,43.40
2022-12-19T09:22:19.723Z,40.10
2022-12-19T09:24:48.309Z,39.70
2022-12-19T09:27:17.008Z,39.20
2022-12-19T09:29:45.787Z,47.70
2022-12-19T09:32:14.584Z,46.90
2022-12-19T09:34:43.158Z,41.20
2022-12-19T09:37:17.094Z,43.70
2022-12-19T09:39:47.802Z,39.40
2022-12-19T09:42:45.335Z,86.00
2022-12-19T09:45:32.995Z,53.10
2022-12-19T09:48:03.060Z,42.00
2022-12-19T09:50:57.006Z,39.90
2022-12-19T09:54:07.979Z,45.00
2022-12-19T09:56:46.216Z,47.60
2022-12-19T09:59:42.782Z,42.90
2022-12-19T10:02:33.893Z,42.60
2022-12-19T10:06:39.168Z,43.50
2022-12-19T10:08:51.991Z,42.30
2022-12-19T10:12:42.160Z,47.50
2022-12-19T10:14:53.487Z,40.10
2022-12-19T10:17:46.041Z,40.20
2022-12-19T10:20:42.880Z,42.50
2022-12-19T10:23:40.040Z,60.40
2022-12-19T10:26:29.933Z,83.80
2022-12-19T10:29:30.042Z,75.30
2022-12-19T10:32:36.916Z,49.30
2022-12-19T10:35:19.081Z,142.70
2022-12-19T10:37:55.674Z,60.20
2022-12-19T10:40:29.467Z,46.80
2022-12-19T10:43:19.111Z,49.50
2022-12-19T10:46:11.356Z,49.30
2022-12-19T10:48:40.129Z,54.10
2022-12-19T10:51:19.178Z,53.30
2022-12-19T10:53:58.811Z,46.80
2022-12-19T10:56:37.385Z,44.50
2022-12-19T10:59:18.528Z,47.60
2022-12-19T11:01:48.529Z,46.20
2022-12-19T11:04:36.239Z,47.40
2022-12-19T11:07:05.412Z,52.60
2022-12-19T11:09:48.161Z,57.10
2022-12-19T11:15:45.828Z,48.70
2022-12-19T11:19:42.592Z,79.30
2022-12-19T11:27:34.374Z,69.70
2022-12-19T11:29:30.231Z,50.60
2022-12-19T11:30:35.943Z,38.80
2022-12-19T11:30:44.128Z,50.00
2022-12-19T11:33:24.476Z,50.70
2022-12-19T11:35:56.804Z,63.90
2022-12-19T11:38:53.167Z,57.80
2022-12-19T11:41:39.364Z,46.60
2022-12-19T11:44:45.017Z,65.90
2022-12-19T11:47:48.727Z,73.30
2022-12-19T11:50:33.095Z,62.20
2022-12-19T11:53:34.839Z,48.80
2022-12-19T11:56:18.876Z,51.90
2022-12-19T11:58:53.679Z,73.70
2022-12-19T12:02:10.336Z,64.80
2022-12-19T12:04:52.074Z,53.70
2022-12-19T12:07:37.361Z,54.30
2022-12-19T12:15:13.773Z,59.40
2022-12-19T12:20:47.440Z,43.40
2022-12-19T12:28:42.855Z,60.90
2022-12-19T12:31:14.530Z,59.50
2022-12-19T12:31:46.048Z,32.60
2022-12-19T12:31:51.388Z,40.30
2022-12-19T12:32:06.313Z,41.50
2022-12-19T12:35:56.311Z,35.50
2022-12-19T12:39:18.217Z,38.70
2022-12-19T12:42:23.623Z,35.30
2022-12-19T12:44:57.413Z,38.90
2022-12-19T12:47:30.469Z,65.50
2022-12-19T12:50:15.080Z,100.00
2022-12-19T12:53:09.643Z,56.30
2022-12-19T12:55:42.107Z,108.30
2022-12-19T12:58:54.352Z,46.50
2022-12-19T13:01:29.074Z,53.50
2022-12-19T13:04:13.235Z,36.20
2022-12-19T13:07:29.310Z,54.70
2022-12-19T13:10:20.448Z,34.70
2022-12-19T13:13:19.742Z,35.80
2022-12-19T13:15:51.305Z,48.60
2022-12-19T13:18:38.206Z,39.30
2022-12-19T13:21:09.809Z,40.00
2022-12-19T13:23:38.467Z,50.30
2022-12-19T13:26:47.332Z,34.20
2022-12-19T13:29:33.606Z,38.50
2022-12-19T13:32:13.302Z,31.00
2022-12-19T13:34:58.632Z,36.80
2022-12-19T13:39:56.640Z,38.00
2022-12-19T13:41:23.133Z,39.50
2022-12-19T13:43:59.490Z,36.60
2022-12-19T13:46:39.877Z,33.90
2022-12-19T13:49:31.781Z,33.30
2022-12-19T13:52:05.231Z,33.90
2022-12-19T13:54:52.541Z,40.10
2022-12-19T13:57:26.796Z,28.90
2022-12-19T14:00:02.187Z,34.10
2022-12-19T14:02:55.093Z,33.90
2022-12-19T14:06:15.094Z,34.20
2022-12-19T14:08:25.692Z,34.60
2022-12-19T14:11:41.539Z,34.30
2022-12-19T14:14:25.514Z,37.30
2022-12-19T14:17:09.367Z,36.60
2022-12-19T14:19:44.903Z,35.00
2022-12-19T14:22:26.048Z,36.60
2022-12-19T14:25:10.138Z,36.00
2022-12-19T14:28:21.571Z,37.40
2022-12-19T14:30:59.710Z,47.20
2022-12-19T14:33:47.266Z,38.20
2022-12-19T14:36:28.292Z,31.90
2022-12-19T14:39:27.852Z,34.90
2022-12-19T14:42:10.671Z,34.90
2022-12-19T14:54:08.629Z,43.80
2022-12-19T14:54:08.900Z,37.20
2022-12-19T14:54:09.276Z,36.00
2022-12-19T14:54:40.652Z,40.50
2022-12-19T14:56:36.275Z,34.00
2022-12-19T14:59:23.016Z,37.10
2022-12-19T15:01:55.308Z,38.30
2022-12-19T15:04:50.609Z,32.20
2022-12-19T15:07:29.684Z,39.70
2022-12-19T15:11:08.384Z,39.00
2022-12-19T15:14:54.329Z,53.90
2022-12-19T15:16:34.874Z,44.80
2022-12-19T15:19:11.142Z,44.50
2022-12-19T15:21:39.625Z,42.10
2022-12-19T15:24:09.023Z,46.40
2022-12-19T15:26:48.691Z,43.80
2022-12-19T15:29:21.875Z,39.60
2022-12-19T15:31:51.333Z,35.10
2022-12-19T15:34:44.359Z,44.90
2022-12-19T15:37:17.721Z,48.60
2022-12-19T15:39:46.307Z,43.20
2022-12-19T15:42:25.154Z,68.80
2022-12-19T15:44:56.731Z,47.80
2022-12-19T15:47:31.159Z,37.20
2022-12-19T15:50:04.116Z,37.80
2022-12-19T15:52:32.885Z,36.30
2022-12-19T15:55:01.474Z,36.40
2022-12-19T15:57:38.641Z,40.60
2022-12-19T16:00:16.552Z,38.00
2022-12-19T16:03:22.932Z,41.80
2022-12-19T16:05:35.635Z,41.70
2022-12-19T16:08:16.061Z,42.70
2022-12-19T16:10:49.011Z,44.70
2022-12-19T16:13:30.808Z,45.20
2022-12-19T16:15:59.827Z,41.00
2022-12-19T16:18:28.683Z,40.90
2022-12-19T16:20:57.666Z,33.30
2022-12-19T16:23:26.964Z,49.30
2022-12-19T16:25:55.954Z,41.50
2022-12-19T16:28:34.221Z,40.20
2022-12-19T16:31:16.914Z,37.80
2022-12-19T16:33:45.566Z,42.00
2022-12-19T16:36:14.360Z,39.00
2022-12-19T16:38:43.165Z,43.20
2022-12-19T16:41:26.486Z,58.70
2022-12-19T16:43:55.066Z,42.90
2022-12-19T16:46:26.401Z,42.50
2022-12-19T16:48:55.004Z,52.20
2022-12-19T16:51:27.819Z,39.80
2022-12-19T16:54:00.856Z,43.80
2022-12-19T16:56:48.196Z,45.80
2022-12-19T16:59:32.029Z,46.10
2022-12-19T17:02:01.287Z,51.30
2022-12-19T17:04:30.633Z,53.50
2022-12-19T17:07:00.447Z,43.80
2022-12-19T17:09:29.032Z,50.40
2022-12-19T17:12:01.056Z,49.90
2022-12-19T17:14:32.312Z,43.50
2022-12-19T17:17:01.313Z,58.10
2022-12-19T17:19:41.946Z,48.30
2022-12-19T17:22:16.210Z,55.70
2022-12-19T17:24:49.303Z,54.40
2022-12-19T17:27:19.565Z,55.60
2022-12-19T17:29:48.324Z,45.70
2022-12-19T17:32:23.617Z,42.70
2022-12-19T17:34:53.278Z,55.00
2022-12-19T17:37:22.165Z,60.20
2022-12-19T17:39:50.858Z,49.00
2022-12-19T17:42:24.399Z,44.80
2022-12-19T17:44:53.075Z,38.60
2022-12-19T17:47:21.743Z,41.20
2022-12-19T17:49:51.179Z,39.90
2022-12-19T17:52:20.623Z,38.00
2022-12-19T17:54:49.444Z,32.40
2022-12-19T17:57:19.710Z,44.50
2022-12-19T17:59:48.245Z,39.70
2022-12-19T18:02:24.009Z,37.60
2022-12-19T18:04:54.008Z,38.50
2022-12-19T18:07:22.588Z,34.10
2022-12-19T18:09:51.337Z,40.30
2022-12-19T18:12:20.382Z,41.00
2022-12-19T18:14:48.966Z,35.40
2022-12-19T18:17:25.706Z,45.70
2022-12-19T18:19:54.947Z,42.10
2022-12-19T18:22:23.826Z,38.40
2022-12-19T18:24:52.817Z,35.10
2022-12-19T18:27:21.602Z,48.10
2022-12-19T18:29:50.224Z,34.90
2022-12-19T18:32:20.620Z,43.70
2022-12-19T18:34:49.407Z,36.60
2022-12-19T18:37:18.107Z,38.60
2022-12-19T18:39:46.886Z,38.50
2022-12-19T18:42:22.242Z,41.90
2022-12-19T18:44:50.939Z,32.30
2022-12-19T18:47:25.678Z,32.30
2022-12-19T18:49:54.439Z,46.40
2022-12-19T18:52:23.032Z,42.40
2022-12-19T18:54:52.113Z,60.80
2022-12-19T18:57:20.615Z,71.20
2022-12-19T18:59:50.411Z,50.60
2022-12-19T19:02:28.204Z,56.40
2022-12-19T19:04:57.418Z,49.40
2022-12-19T19:07:25.992Z,71.60
2022-12-19T19:09:54.887Z,50.80
2022-12-19T19:12:48.866Z,81.10
2022-12-19T19:15:24.413Z,59.70
2022-12-19T19:17:59.016Z,57.20
2022-12-19T19:20:31.123Z,62.70
2022-12-19T19:23:00.546Z,51.50
2022-12-19T19:25:29.098Z,42.40
2022-12-19T19:27:58.495Z,36.00
2022-12-19T19:30:27.078Z,57.40
2022-12-19T19:33:07.748Z,48.20
2022-12-19T19:35:37.148Z,37.00
2022-12-19T19:38:08.870Z,51.00
2022-12-19T19:40:37.701Z,49.70
2022-12-19T19:43:07.311Z,44.00
2022-12-19T19:45:46.391Z,48.90
2022-12-19T19:48:15.746Z,40.10
2022-12-19T19:50:44.427Z,44.20
2022-12-19T19:53:13.008Z,41.00
2022-12-19T19:55:41.696Z,36.80
2022-12-19T19:58:10.280Z,41.30
2022-12-19T20:00:40.356Z,36.40
2022-12-19T20:03:10.720Z,38.50
2022-12-19T20:05:40.640Z,42.90
2022-12-19T20:08:09.228Z,40.80
2022-12-19T20:10:37.915Z,33.30
2022-12-19T20:13:06.810Z,34.80
2022-12-19T20:15:35.513Z,33.10
2022-12-19T20:18:04.999Z,39.30
2022-12-19T20:20:34.050Z,32.30
2022-12-19T20:23:05.488Z,38.80
2022-12-19T20:25:36.691Z,42.70
2022-12-19T20:28:06.091Z,35.20
2022-12-19T20:30:34.684Z,33.60
2022-12-19T20:33:03.382Z,35.10
2022-12-19T20:35:32.054Z,35.30
2022-12-19T20:38:00.650Z,30.70
2022-12-19T20:40:29.737Z,32.80
2022-12-19T20:42:58.321Z,35.10
2022-12-19T20:45:27.106Z,39.50
2022-12-19T20:47:55.800Z,33.80
2022-12-19T20:50:24.654Z,37.30
2022-12-19T20:52:53.271Z,36.40
2022-12-19T20:55:22.391Z,35.90
2022-12-19T20:57:51.060Z,32.90
2022-12-19T21:00:20.508Z,32.60
2022-12-19T21:03:25.962Z,32.70
2022-12-19T21:05:37.913Z,31.50
2022-12-19T21:08:07.408Z,33.40
2022-12-19T21:10:36.802Z,35.70
2022-12-19T21:13:05.906Z,40.10
2022-12-19T21:15:35.018Z,32.40
2022-12-19T21:18:03.918Z,37.90
2022-12-19T21:20:38.254Z,32.20
2022-12-19T21:23:06.901Z,36.30
2022-12-19T21:25:35.696Z,34.30
2022-12-19T21:28:04.482Z,33.90
2022-12-19T21:30:33.164Z,34.40
2022-12-19T21:33:01.852Z,38.10
2022-12-19T21:35:33.185Z,33.40
2022-12-19T21:38:02.519Z,31.30
2022-12-19T21:40:31.087Z,31.40
2022-12-19T21:42:59.999Z,33.20
2022-12-19T21:45:28.676Z,26.50
2022-12-19T21:47:57.249Z,32.00
2022-12-19T21:50:25.837Z,34.80
2022-12-19T21:52:56.031Z,33.90
2022-12-19T21:55:25.063Z,35.00
2022-12-19T21:57:53.849Z,34.20
2022-12-19T22:00:22.800Z,32.50
2022-12-19T22:03:12.610Z,29.60
2022-12-19T22:05:40.691Z,27.70
2022-12-19T22:08:11.105Z,31.30
2022-12-19T22:10:40.317Z,33.50
2022-12-19T22:13:09.013Z,31.80
2022-12-19T22:15:37.797Z,36.50
2022-12-19T22:18:06.587Z,35.60
2022-12-19T22:20:35.387Z,27.60
2022-12-19T22:23:09.714Z,30.90
2022-12-19T22:25:41.654Z,34.80
2022-12-19T22:28:10.341Z,30.60
2022-12-19T22:30:39.030Z,32.50
2022-12-19T22:33:07.823Z,34.50
2022-12-19T22:35:36.552Z,30.10
2022-12-19T22:38:05.091Z,30.90
2022-12-19T22:40:34.730Z,29.00
2022-12-19T22:43:03.282Z,29.60
2022-12-19T22:45:32.026Z,29.00
2022-12-19T22:48:00.857Z,27.10
2022-12-19T22:50:29.547Z,31.90
2022-12-19T22:52:58.538Z,29.30
2022-12-19T22:55:27.226Z,28.80
2022-12-19T22:57:55.719Z,32.60
2022-12-19T23:00:24.397Z,32.70
2022-12-19T23:02:53.143Z,26.60
2022-12-19T23:05:22.279Z,31.80
2022-12-19T23:07:50.868Z,28.50
2022-12-19T23:10:19.557Z,28.90
2022-12-19T23:12:48.086Z,28.90
2022-12-19T23:15:16.923Z,28.50
2022-12-19T23:17:46.033Z,27.60
2022-12-19T23:20:14.917Z,26.90
2022-12-19T23:22:44.118Z,29.50
2022-12-19T23:25:13.031Z,27.30
2022-12-19T23:27:42.137Z,26.30
2022-12-19T23:30:11.908Z,25.90
2022-12-19T23:32:45.484Z,28.40
2022-12-19T23:35:17.961Z,30.40
2022-12-19T23:37:46.683Z,28.90
2022-12-19T23:40:15.686Z,30.60
2022-12-19T23:42:44.362Z,28.30
2022-12-19T23:45:13.150Z,27.60
2022-12-19T23:47:41.733Z,29.20
2022-12-19T23:50:11.118Z,33.10
2022-12-19T23:52:39.726Z,30.70
2022-12-19T23:55:09.878Z,26.90
2022-12-19T23:57:38.524Z,33.30
